Time,TemperatureF,DewpointF,PressureIn,WindDirection,WindDirectionDegrees,WindSpeedMPH,WindSpeedGustMPH,Humidity,HourlyPrecipIn,Conditions,Clouds,dailyrainin,SoftwareType,DateUTC
2013-07-06 00:03:00,72.6,61.8,29.62,SSE,163,8.0,11.5,69,0.00,CLR,SKC,0.00,WeatherDisplay:10.37,2013-07-06 05:03:00,
2013-07-06 00:08:00,72.5,61.7,29.62,South,180,8.6,12.0,69,0.00,CLR,SKC,0.00,WeatherDisplay:10.37,2013-07-06 05:08:00,
2013-07-06 00:13:00,72.4,62.1,29.63,South,171,7.2,11.5,70,0.00,CLR,SKC,0.00,WeatherDisplay:10.37,2013-07-06 05:13:00,
2013-07-06 00:18:00,72.3,62.0,29.63,South,173,8.1,11.5,70,0.00,CLR,SKC,0.00,WeatherDisplay:10.37,2013-07-06 05:18:00,
2013-07-06 00:23:00,72.3,62.0,29.63,South,173,8.7,12.0,70,0.00,CLR,SKC,0.00,WeatherDisplay:10.37,2013-07-06 05:23:00,
2013-07-06 00:28:00,72.4,62.1,29.63,South,174,7.3,12.7,70,0.00,CLR,SKC,0.00,WeatherDisplay:10.37,2013-07-06 05:28:00,
2013-07-06 00:33:00,72.3,62.0,29.63,South,180,8.3,12.0,70,0.00,CLR,SKC,0.00,WeatherDisplay:10.37,2013-07-06 05:33:00,
2013-07-06 00:38:00,72.2,61.9,29.63,South,170,8.0,11.0,70,0.00,CLR,SKC,0.00,WeatherDisplay:10.37,2013-07-06 05:38:00,
2013-07-06 00:43:00,72.1,61.8,29.63,South,171,6.7,11.0,70,0.00,CLR,SKC,0.00,WeatherDisplay:10.37,2013-07-06 05:43:00,
2013-07-06 00:48:00,72.0,61.7,29.63,South,171,8.7,11.5,70,0.00,CLR,SKC,0.00,WeatherDisplay:10.37,2013-07-06 05:48:00,
2013-07-06 00:53:00,72.0,61.7,29.63,South,171,10.1,13.0,70,0.00,CLR,SKC,0.00,WeatherDisplay:10.37,2013-07-06 05:53:00,
2013-07-06 00:58:00,72.0,61.7,29.63,South,175,9.7,12.0,70,0.00,CLR,SKC,0.00,WeatherDisplay:10.37,2013-07-06 05:58:00,
2013-07-06 01:03:00,71.9,61.6,29.63,South,169,6.8,9.2,70,0.00,CLR,SKC,0.00,WeatherDisplay:10.37,2013-07-06 06:03:00,
2013-07-06 01:08:00,71.8,61.5,29.64,South,171,7.5,11.5,70,0.00,CLR,SKC,0.00,WeatherDisplay:10.37,2013-07-06 06:08:00,
2013-07-06 01:13:00,71.7,61.4,29.63,SSE,168,7.8,10.4,70,0.00,CLR,SKC,0.00,WeatherDisplay:10.37,2013-07-06 06:13:00,
2013-07-06 01:18:00,71.5,61.6,29.63,South,169,8.5,10.4,71,0.00,CLR,SKC,0.00,WeatherDisplay:10.37,2013-07-06 06:18:00,
2013-07-06 01:23:00,71.4,61.5,29.63,South,169,6.9,11.5,71,0.00,CLR,SKC,0.00,WeatherDisplay:10.37,2013-07-06 06:23:00,
2013-07-06 01:28:00,71.2,61.3,29.64,South,172,5.7,9.2,71,0.00,CLR,SKC,0.00,WeatherDisplay:10.37,2013-07-06 06:28:00,
2013-07-06 01:33:00,70.9,61.0,29.63,SSE,168,7.1,9.2,71,0.00,CLR,SKC,0.00,WeatherDisplay:10.37,2013-07-06 06:33:00,
2013-07-06 01:38:00,70.8,60.9,29.63,South,171,7.3,10.4,71,0.00,CLR,SKC,0.00,WeatherDisplay:10.37,2013-07-06 06:38:00,
2013-07-06 01:43:00,70.7,61.2,29.63,South,170,6.9,10.4,72,0.00,CLR,SKC,0.00,WeatherDisplay:10.37,2013-07-06 06:43:00,
2013-07-06 01:48:00,70.6,61.1,29.64,South,173,5.8,11.5,72,0.00,CLR,SKC,0.00,WeatherDisplay:10.37,2013-07-06 06:48:00,
2013-07-06 01:53:00,70.6,61.1,29.64,South,173,5.3,9.2,72,0.00,CLR,SKC,0.00,WeatherDisplay:10.37,2013-07-06 06:53:00,
2013-07-06 01:58:00,70.4,60.9,29.64,SSE,167,7.2,9.2,72,0.00,CLR,SKC,0.00,WeatherDisplay:10.37,2013-07-06 06:58:00,
2013-07-06 02:03:00,70.3,60.8,29.64,South,176,6.7,9.0,72,0.00,CLR,SKC,0.00,WeatherDisplay:10.37,2013-07-06 07:03:00,
2013-07-06 02:08:00,70.0,60.6,29.64,South,169,6.2,8.1,72,0.00,CLR,SKC,0.00,WeatherDisplay:10.37,2013-07-06 07:08:00,
2013-07-06 02:13:00,69.8,60.4,29.64,South,173,5.5,9.2,72,0.00,CLR,SKC,0.00,WeatherDisplay:10.37,2013-07-06 07:13:00,
2013-07-06 02:18:00,69.7,60.7,29.64,South,169,5.1,8.1,73,0.00,CLR,SKC,0.00,WeatherDisplay:10.37,2013-07-06 07:18:00,
2013-07-06 02:23:00,69.6,60.6,29.64,SSE,166,5.8,8.1,73,0.00,CLR,SKC,0.00,WeatherDisplay:10.37,2013-07-06 07:23:00,
2013-07-06 02:28:00,69.3,60.3,29.64,SSE,166,5.6,8.1,73,0.00,CLR,SKC,0.00,WeatherDisplay:10.37,2013-07-06 07:28:00,
2013-07-06 02:33:00,69.2,60.2,29.64,South,169,6.2,8.1,73,0.00,CLR,SKC,0.00,WeatherDisplay:10.37,2013-07-06 07:33:00,
2013-07-06 02:38:00,69.0,60.0,29.64,South,173,6.2,8.1,73,0.00,CLR,SKC,0.00,WeatherDisplay:10.37,2013-07-06 07:38:00,
2013-07-06 02:43:00,69.0,60.0,29.64,South,171,5.0,7.0,73,0.00,CLR,SKC,0.00,WeatherDisplay:10.37,2013-07-06 07:43:00,
2013-07-06 02:48:00,68.9,59.9,29.64,South,169,5.7,9.0,73,0.00,CLR,SKC,0.00,WeatherDisplay:10.37,2013-07-06 07:48:00,
2013-07-06 02:53:00,68.9,59.9,29.64,South,169,5.6,9.2,73,0.00,CLR,SKC,0.00,WeatherDisplay:10.37,2013-07-06 07:53:00,
2013-07-06 02:58:00,68.9,59.9,29.64,SSE,163,7.0,10.0,73,0.00,CLR,SKC,0.00,WeatherDisplay:10.37,2013-07-06 07:58:00,
2013-07-06 03:03:00,68.9,59.9,29.64,SSE,151,6.8,9.2,73,0.00,CLR,SKC,0.00,WeatherDisplay:10.37,2013-07-06 08:03:00,
2013-07-06 03:08:00,68.9,59.9,29.64,South,171,6.4,9.2,73,0.00,CLR,SKC,0.00,WeatherDisplay:10.37,2013-07-06 08:08:00,
2013-07-06 03:13:00,68.8,59.8,29.64,SSE,167,6.6,10.0,73,0.00,CLR,SKC,0.00,WeatherDisplay:10.37,2013-07-06 08:13:00,
2013-07-06 03:18:00,68.8,59.8,29.64,South,169,7.3,10.4,73,0.00,CLR,SKC,0.00,WeatherDisplay:10.37,2013-07-06 08:18:00,
2013-07-06 03:23:00,68.8,59.8,29.64,South,176,6.9,10.4,73,0.00,CLR,SKC,0.00,WeatherDisplay:10.37,2013-07-06 08:23:00,
2013-07-06 03:28:00,68.8,59.8,29.63,SSE,167,8.4,11.5,73,0.00,CLR,SKC,0.00,WeatherDisplay:10.37,2013-07-06 08:28:00,
2013-07-06 03:33:00,68.9,59.9,29.63,South,177,8.2,11.0,73,0.00,CLR,SKC,0.00,WeatherDisplay:10.37,2013-07-06 08:33:00,
2013-07-06 03:38:00,68.9,59.9,29.63,South,178,7.0,10.4,73,0.00,CLR,SKC,0.00,WeatherDisplay:10.37,2013-07-06 08:38:00,
2013-07-06 03:43:00,68.7,59.7,29.63,South,170,5.7,8.1,73,0.00,CLR,SKC,0.00,WeatherDisplay:10.37,2013-07-06 08:43:00,
2013-07-06 03:48:00,68.5,59.5,29.63,South,175,5.4,9.2,73,0.00,CLR,SKC,0.00,WeatherDisplay:10.37,2013-07-06 08:48:00,
2013-07-06 03:53:00,68.4,59.4,29.63,South,169,5.9,9.2,73,0.00,CLR,SKC,0.00,WeatherDisplay:10.37,2013-07-06 08:53:00,
2013-07-06 03:58:00,68.2,59.2,29.63,SSE,165,6.7,9.2,73,0.00,CLR,SKC,0.00,WeatherDisplay:10.37,2013-07-06 08:58:00,
2013-07-06 04:03:00,68.0,59.0,29.63,South,171,7.2,10.4,73,0.00,CLR,SKC,0.00,WeatherDisplay:10.37,2013-07-06 09:03:00,
2013-07-06 04:08:00,67.9,58.9,29.63,South,173,7.1,9.2,73,0.00,CLR,SKC,0.00,WeatherDisplay:10.37,2013-07-06 09:08:00,
2013-07-06 04:13:00,67.8,58.8,29.63,South,175,6.1,11.5,73,0.00,CLR,SKC,0.00,WeatherDisplay:10.37,2013-07-06 09:13:00,
2013-07-06 04:18:00,67.7,58.7,29.63,South,174,7.4,10.4,73,0.00,CLR,SKC,0.00,WeatherDisplay:10.37,2013-07-06 09:18:00,
2013-07-06 04:23:00,67.7,58.7,29.62,South,173,8.8,11.5,73,0.00,CLR,SKC,0.00,WeatherDisplay:10.37,2013-07-06 09:23:00,
2013-07-06 04:28:00,67.7,58.7,29.62,SSE,168,6.0,9.2,73,0.00,CLR,SKC,0.00,WeatherDisplay:10.37,2013-07-06 09:28:00,
2013-07-06 04:33:00,67.6,58.6,29.63,SSE,168,7.3,10.4,73,0.00,CLR,SKC,0.00,WeatherDisplay:10.37,2013-07-06 09:33:00,
2013-07-06 04:38:00,67.5,58.5,29.63,SSE,167,6.3,9.2,73,0.00,CLR,SKC,0.00,WeatherDisplay:10.37,2013-07-06 09:38:00,
2013-07-06 04:43:00,67.4,58.4,29.63,South,178,5.2,7.0,73,0.00,CLR,SKC,0.00,WeatherDisplay:10.37,2013-07-06 09:43:00,
2013-07-06 04:48:00,67.3,58.3,29.63,South,170,7.7,10.4,73,0.00,CLR,SKC,0.00,WeatherDisplay:10.37,2013-07-06 09:48:00,
2013-07-06 04:53:00,67.3,58.3,29.63,South,172,4.8,9.2,73,0.00,CLR,SKC,0.00,WeatherDisplay:10.37,2013-07-06 09:53:00,
2013-07-06 04:58:00,67.2,58.2,29.63,SSE,167,5.4,9.2,73,0.00,CLR,SKC,0.00,WeatherDisplay:10.37,2013-07-06 09:58:00,
2013-07-06 05:03:00,67.0,58.1,29.63,South,172,4.8,8.1,73,0.00,CLR,SKC,0.00,WeatherDisplay:10.37,2013-07-06 10:03:00,
2013-07-06 05:08:00,66.8,57.9,29.63,South,171,5.1,7.0,73,0.00,CLR,SKC,0.00,WeatherDisplay:10.37,2013-07-06 10:08:00,
2013-07-06 05:13:00,66.7,57.8,29.63,South,172,5.2,7.0,73,0.00,CLR,SKC,0.00,WeatherDisplay:10.37,2013-07-06 10:13:00,
2013-07-06 05:18:00,66.7,57.8,29.63,South,175,5.3,8.1,73,0.00,CLR,SKC,0.00,WeatherDisplay:10.37,2013-07-06 10:18:00,
2013-07-06 05:23:00,66.7,57.8,29.63,SSE,168,7.0,10.4,73,0.00,CLR,SKC,0.00,WeatherDisplay:10.37,2013-07-06 10:23:00,
2013-07-06 05:28:00,66.7,57.8,29.63,South,173,5.6,8.1,73,0.00,CLR,SKC,0.00,WeatherDisplay:10.37,2013-07-06 10:28:00,
2013-07-06 05:33:00,66.5,57.6,29.63,South,171,5.8,7.0,73,0.00,CLR,SKC,0.00,WeatherDisplay:10.37,2013-07-06 10:33:00,
2013-07-06 05:38:00,66.5,57.6,29.63,South,174,5.5,8.1,73,0.00,CLR,SKC,0.00,WeatherDisplay:10.37,2013-07-06 10:38:00,
2013-07-06 05:43:00,66.3,57.4,29.64,South,171,6.4,8.1,73,0.00,CLR,SKC,0.00,WeatherDisplay:10.37,2013-07-06 10:43:00,
2013-07-06 05:48:00,66.3,57.4,29.64,South,171,5.8,9.0,73,0.00,CLR,SKC,0.00,WeatherDisplay:10.37,2013-07-06 10:48:00,
2013-07-06 05:53:00,66.3,57.4,29.64,South,175,6.2,8.1,73,0.00,CLR,SKC,0.00,WeatherDisplay:10.37,2013-07-06 10:53:00,
2013-07-06 05:58:00,66.3,57.4,29.64,South,169,5.7,9.2,73,0.00,CLR,SKC,0.00,WeatherDisplay:10.37,2013-07-06 10:58:00,
2013-07-06 06:03:00,66.4,57.5,29.64,South,176,5.3,9.2,73,0.00,CLR,SKC,0.00,WeatherDisplay:10.37,2013-07-06 11:03:00,
2013-07-06 06:08:00,66.5,57.6,29.64,South,176,5.9,8.1,73,0.00,CLR,SKC,0.00,WeatherDisplay:10.37,2013-07-06 11:08:00,
2013-07-06 06:13:00,66.6,57.7,29.64,South,175,7.3,9.0,73,0.00,CLR,SKC,0.00,WeatherDisplay:10.37,2013-07-06 11:13:00,
2013-07-06 06:18:00,66.8,57.9,29.64,South,171,6.0,8.1,73,0.00,CLR,SKC,0.00,WeatherDisplay:10.37,2013-07-06 11:18:00,
2013-07-06 06:23:00,67.1,58.2,29.64,South,173,5.3,10.4,73,0.00,CLR,SKC,0.00,WeatherDisplay:10.37,2013-07-06 11:23:00,
2013-07-06 06:28:00,67.3,58.3,29.64,South,174,4.5,9.2,73,0.00,CLR,SKC,0.00,WeatherDisplay:10.37,2013-07-06 11:28:00,
2013-07-06 06:33:00,67.4,58.4,29.64,South,173,7.1,9.2,73,0.00,CLR,SKC,0.00,WeatherDisplay:10.37,2013-07-06 11:33:00,
2013-07-06 06:38:00,67.7,58.7,29.64,South,175,6.5,8.1,73,0.00,CLR,SKC,0.00,WeatherDisplay:10.37,2013-07-06 11:38:00,
2013-07-06 06:43:00,67.9,58.9,29.64,South,175,6.6,8.1,73,0.00,CLR,SKC,0.00,WeatherDisplay:10.37,2013-07-06 11:43:00,
2013-07-06 06:48:00,68.2,59.2,29.64,South,177,6.1,9.2,73,0.00,CLR,SKC,0.00,WeatherDisplay:10.37,2013-07-06 11:48:00,
2013-07-06 06:53:00,68.6,59.6,29.64,South,171,5.4,9.2,73,0.00,CLR,SKC,0.00,WeatherDisplay:10.37,2013-07-06 11:53:00,
2013-07-06 06:58:00,68.9,59.9,29.64,South,178,5.4,10.4,73,0.00,CLR,SKC,0.00,WeatherDisplay:10.37,2013-07-06 11:58:00,
2013-07-06 07:03:00,69.3,60.3,29.64,South,187,6.8,11.5,73,0.00,CLR,SKC,0.00,WeatherDisplay:10.37,2013-07-06 12:03:00,
2013-07-06 07:08:00,69.5,60.5,29.64,South,186,7.2,11.5,73,0.00,CLR,SKC,0.00,WeatherDisplay:10.37,2013-07-06 12:08:00,
2013-07-06 07:13:00,69.5,60.5,29.64,South,176,7.4,11.5,73,0.00,CLR,SKC,0.00,WeatherDisplay:10.37,2013-07-06 12:13:00,
2013-07-06 07:18:00,69.5,60.5,29.64,South,174,7.9,11.5,73,0.00,CLR,SKC,0.00,WeatherDisplay:10.37,2013-07-06 12:18:00,
2013-07-06 07:23:00,69.7,60.7,29.64,SSE,168,9.3,11.5,73,0.00,CLR,SKC,0.00,WeatherDisplay:10.37,2013-07-06 12:23:00,
2013-07-06 07:28:00,69.9,60.8,29.64,South,177,7.6,11.0,73,0.00,CLR,SKC,0.00,WeatherDisplay:10.37,2013-07-06 12:28:00,
2013-07-06 07:33:00,70.0,60.9,29.64,South,173,7.0,11.5,73,0.00,CLR,SKC,0.00,WeatherDisplay:10.37,2013-07-06 12:33:00,
2013-07-06 07:38:00,70.3,61.2,29.64,South,180,7.7,11.0,73,0.00,CLR,SKC,0.00,WeatherDisplay:10.37,2013-07-06 12:38:00,
2013-07-06 07:43:00,70.7,61.6,29.64,South,174,9.7,12.0,73,0.00,CLR,SKC,0.00,WeatherDisplay:10.37,2013-07-06 12:43:00,
2013-07-06 07:48:00,71.6,62.1,29.65,South,175,8.0,12.7,72,0.00,CLR,SKC,0.00,WeatherDisplay:10.37,2013-07-06 12:48:00,
2013-07-06 07:53:00,72.3,62.4,29.64,SSW,193,10.1,13.0,71,0.00,CLR,SKC,0.00,WeatherDisplay:10.37,2013-07-06 12:53:00,
2013-07-06 07:58:00,72.9,62.9,29.65,South,184,7.7,13.0,71,0.00,CLR,SKC,0.00,WeatherDisplay:10.37,2013-07-06 12:58:00,
2013-07-06 08:03:00,73.4,63.0,29.64,WSW,243,9.3,13.0,70,0.00,CLR,SKC,0.00,WeatherDisplay:10.37,2013-07-06 13:03:00,
2013-07-06 08:08:00,73.8,63.0,29.64,South,178,8.1,13.0,69,0.00,CLR,SKC,0.00,WeatherDisplay:10.37,2013-07-06 13:08:00,
2013-07-06 08:13:00,74.2,63.4,29.64,South,183,9.3,16.0,69,0.00,CLR,SKC,0.00,WeatherDisplay:10.37,2013-07-06 13:13:00,
2013-07-06 08:18:00,74.6,63.3,29.64,South,183,8.0,11.5,68,0.00,CLR,SKC,0.00,WeatherDisplay:10.37,2013-07-06 13:18:00,
2013-07-06 08:23:00,75.2,63.9,29.64,South,174,9.9,13.0,68,0.00,CLR,SKC,0.00,WeatherDisplay:10.37,2013-07-06 13:23:00,
2013-07-06 08:28:00,75.6,63.9,29.64,SSE,148,10.4,13.0,67,0.00,CLR,SKC,0.00,WeatherDisplay:10.37,2013-07-06 13:28:00,
2013-07-06 08:34:00,76.0,63.8,29.64,South,178,11.4,17.0,66,0.00,CLR,SKC,0.00,WeatherDisplay:10.37,2013-07-06 13:34:00,
2013-07-06 08:39:00,76.1,63.9,29.64,South,179,10.9,14.0,66,0.00,CLR,SKC,0.00,WeatherDisplay:10.37,2013-07-06 13:39:00,
2013-07-06 08:44:00,76.3,64.1,29.64,South,178,9.5,14.0,66,0.00,CLR,SKC,0.00,WeatherDisplay:10.37,2013-07-06 13:44:00,
2013-07-06 08:49:00,76.6,64.0,29.64,South,175,9.4,13.8,65,0.00,CLR,SKC,0.00,WeatherDisplay:10.37,2013-07-06 13:49:00,
2013-07-06 08:54:00,77.1,64.4,29.64,South,186,9.1,13.8,65,0.00,CLR,SKC,0.00,WeatherDisplay:10.37,2013-07-06 13:54:00,
2013-07-06 08:59:00,77.4,64.7,29.64,South,184,8.9,12.7,65,0.00,CLR,SKC,0.00,WeatherDisplay:10.37,2013-07-06 13:59:00,
2013-07-06 09:04:00,78.0,65.3,29.64,South,176,7.6,11.5,65,0.00,CLR,SKC,0.00,WeatherDisplay:10.37,2013-07-06 14:04:00,
2013-07-06 09:09:00,78.4,64.8,29.64,South,178,8.7,12.0,63,0.00,CLR,SKC,0.00,WeatherDisplay:10.37,2013-07-06 14:09:00,
2013-07-06 09:14:00,78.9,65.2,29.64,South,169,7.3,11.5,63,0.00,CLR,SKC,0.00,WeatherDisplay:10.37,2013-07-06 14:14:00,
2013-07-06 09:19:00,79.3,65.6,29.64,South,175,9.1,11.5,63,0.00,CLR,SKC,0.00,WeatherDisplay:10.37,2013-07-06 14:19:00,
2013-07-06 09:24:00,79.6,65.0,29.64,South,175,8.0,12.7,61,0.00,CLR,SKC,0.00,WeatherDisplay:10.37,2013-07-06 14:24:00,
2013-07-06 09:29:00,79.7,65.1,29.64,South,178,8.2,13.8,61,0.00,CLR,SKC,0.00,WeatherDisplay:10.37,2013-07-06 14:29:00,
2013-07-06 09:34:00,80.0,65.3,29.63,SSE,165,9.3,15.0,61,0.00,CLR,SKC,0.00,WeatherDisplay:10.37,2013-07-06 14:34:00,
2013-07-06 09:39:00,80.2,65.1,29.63,SSE,165,10.6,14.0,60,0.00,CLR,SKC,0.00,WeatherDisplay:10.37,2013-07-06 14:39:00,
2013-07-06 09:44:00,80.4,64.8,29.63,SSE,167,11.3,16.0,59,0.00,CLR,SKC,0.00,WeatherDisplay:10.37,2013-07-06 14:44:00,
2013-07-06 09:49:00,80.7,65.0,29.63,South,180,7.6,13.8,59,0.00,CLR,SKC,0.00,WeatherDisplay:10.37,2013-07-06 14:49:00,
2013-07-06 09:54:00,81.0,65.3,29.63,South,175,10.4,15.0,59,0.00,CLR,SKC,0.00,WeatherDisplay:10.37,2013-07-06 14:54:00,
2013-07-06 09:59:00,81.3,65.6,29.63,South,181,10.6,16.1,59,0.00,CLR,SKC,0.00,WeatherDisplay:10.37,2013-07-06 14:59:00,
2013-07-06 10:04:00,81.8,66.1,29.63,South,172,7.7,13.8,59,0.00,CLR,SKC,0.00,WeatherDisplay:10.37,2013-07-06 15:04:00,
2013-07-06 10:09:00,82.0,65.8,29.62,South,178,10.7,19.6,58,0.00,CLR,SKC,0.00,WeatherDisplay:10.37,2013-07-06 15:09:00,
2013-07-06 10:14:00,82.3,66.0,29.62,South,178,10.6,13.0,58,0.00,CLR,SKC,0.00,WeatherDisplay:10.37,2013-07-06 15:14:00,
2013-07-06 10:19:00,82.4,65.6,29.62,SSE,163,12.5,17.0,57,0.00,CLR,SKC,0.00,WeatherDisplay:10.37,2013-07-06 15:19:00,
2013-07-06 10:24:00,82.4,65.6,29.62,South,171,11.8,15.0,57,0.00,CLR,SKC,0.00,WeatherDisplay:10.37,2013-07-06 15:24:00,
2013-07-06 10:29:00,82.8,66.0,29.62,South,173,9.2,12.7,57,0.00,CLR,SKC,0.00,WeatherDisplay:10.37,2013-07-06 15:29:00,
2013-07-06 10:34:00,83.3,67.0,29.62,South,182,8.0,13.0,58,0.00,CLR,SKC,0.00,WeatherDisplay:10.37,2013-07-06 15:34:00,
2013-07-06 10:39:00,83.7,66.3,29.62,South,176,10.1,14.0,56,0.00,CLR,SKC,0.00,WeatherDisplay:10.37,2013-07-06 15:39:00,
2013-07-06 10:44:00,84.0,66.6,29.62,South,171,10.4,13.8,56,0.00,CLR,SKC,0.00,WeatherDisplay:10.37,2013-07-06 15:44:00,
2013-07-06 10:49:00,84.7,66.2,29.62,SSE,167,10.9,16.0,54,0.00,CLR,SKC,0.00,WeatherDisplay:10.37,2013-07-06 15:49:00,
2013-07-06 10:54:00,84.8,66.3,29.62,SSW,192,7.6,13.8,54,0.00,CLR,SKC,0.00,WeatherDisplay:10.37,2013-07-06 15:54:00,
2013-07-06 10:59:00,85.2,67.2,29.61,SSW,194,8.9,12.0,55,0.00,CLR,SKC,0.00,WeatherDisplay:10.37,2013-07-06 15:59:00,
2013-07-06 11:05:00,85.8,66.7,29.61,SSE,165,11.6,15.0,53,0.00,CLR,SKC,0.00,WeatherDisplay:10.37,2013-07-06 16:05:00,
2013-07-06 11:10:00,85.7,66.6,29.61,South,190,8.9,13.8,53,0.00,CLR,SKC,0.00,WeatherDisplay:10.37,2013-07-06 16:10:00,
2013-07-06 11:15:00,85.6,66.5,29.61,SSW,202,7.9,13.8,53,0.00,CLR,SKC,0.00,WeatherDisplay:10.37,2013-07-06 16:15:00,
2013-07-06 11:20:00,85.0,64.8,29.61,South,180,8.8,18.4,51,0.00,CLR,SKC,0.00,WeatherDisplay:10.37,2013-07-06 16:20:00,
2013-07-06 11:25:00,84.7,64.0,29.61,SSE,167,9.9,16.1,50,0.00,CLR,SKC,0.00,WeatherDisplay:10.37,2013-07-06 16:25:00,
2013-07-06 11:30:00,85.0,64.3,29.61,South,183,10.3,13.8,50,0.00,CLR,SKC,0.00,WeatherDisplay:10.37,2013-07-06 16:30:00,
2013-07-06 11:35:00,86.0,64.0,29.61,South,171,11.7,18.0,48,0.00,CLR,SKC,0.00,WeatherDisplay:10.37,2013-07-06 16:35:00,
2013-07-06 11:40:00,86.6,62.7,29.61,South,175,12.5,17.3,45,0.00,CLR,SKC,0.00,WeatherDisplay:10.37,2013-07-06 16:40:00,
2013-07-06 11:45:00,86.6,63.4,29.61,South,176,8.0,13.8,46,0.00,CLR,SKC,0.00,WeatherDisplay:10.37,2013-07-06 16:45:00,
2013-07-06 11:50:00,87.4,63.5,29.61,South,183,11.3,17.3,45,0.00,CLR,SKC,0.00,WeatherDisplay:10.37,2013-07-06 16:50:00,
2013-07-06 11:56:00,87.1,62.5,29.61,South,184,11.8,15.0,44,0.00,CLR,SKC,0.00,WeatherDisplay:10.37,2013-07-06 16:56:00,
2013-07-06 12:02:00,86.5,62.0,29.60,South,171,11.0,17.3,44,0.00,CLR,SKC,0.00,WeatherDisplay:10.37,2013-07-06 17:02:00,
2013-07-06 12:08:00,87.2,63.9,29.60,SW,229,9.6,15.0,46,0.00,CLR,SKC,0.00,WeatherDisplay:10.37,2013-07-06 17:08:00,
2013-07-06 12:13:00,88.1,62.8,29.60,South,180,10.6,18.4,43,0.00,CLR,SKC,0.00,WeatherDisplay:10.37,2013-07-06 17:13:00,
2013-07-06 12:18:00,88.8,62.7,29.60,SSE,168,12.6,15.0,42,0.00,CLR,SKC,0.00,WeatherDisplay:10.37,2013-07-06 17:18:00,
2013-07-06 12:23:00,89.1,63.0,29.60,South,173,15.9,19.0,42,0.00,CLR,SKC,0.00,WeatherDisplay:10.37,2013-07-06 17:23:00,
2013-07-06 12:28:00,89.2,63.1,29.60,South,172,12.1,20.7,42,0.00,CLR,SKC,0.00,WeatherDisplay:10.37,2013-07-06 17:28:00,
2013-07-06 12:34:00,89.4,61.9,29.60,South,171,14.7,19.6,40,0.00,CLR,SKC,0.00,WeatherDisplay:10.37,2013-07-06 17:34:00,
2013-07-06 12:41:00,89.3,61.8,29.60,SSE,167,14.2,20.7,40,0.00,CLR,SKC,0.00,WeatherDisplay:10.37,2013-07-06 17:41:00,
2013-07-06 12:46:00,89.9,62.3,29.59,South,173,12.5,20.0,40,0.00,CLR,SKC,0.00,WeatherDisplay:10.37,2013-07-06 17:46:00,
2013-07-06 12:52:00,90.1,62.5,29.59,South,170,12.7,16.1,40,0.00,CLR,SKC,0.00,WeatherDisplay:10.37,2013-07-06 17:52:00,
2013-07-06 12:57:00,90.6,63.0,29.59,SSE,165,10.7,16.1,40,0.00,CLR,SKC,0.00,WeatherDisplay:10.37,2013-07-06 17:57:00,
2013-07-06 13:04:00,90.6,60.8,29.59,South,188,10.5,18.4,37,0.00,CLR,SKC,0.00,WeatherDisplay:10.37,2013-07-06 18:04:00,
2013-07-06 13:09:00,90.8,60.9,29.59,South,178,8.9,12.7,37,0.00,CLR,SKC,0.00,WeatherDisplay:10.37,2013-07-06 18:09:00,
2013-07-06 13:14:00,91.1,62.7,29.59,South,178,14.4,17.3,39,0.00,CLR,SKC,0.00,WeatherDisplay:10.37,2013-07-06 18:14:00,
2013-07-06 13:19:00,91.1,62.0,29.59,South,173,14.9,19.6,38,0.00,CLR,SKC,0.00,WeatherDisplay:10.37,2013-07-06 18:19:00,
2013-07-06 13:24:00,90.8,61.7,29.59,SSE,163,13.5,19.6,38,0.00,CLR,SKC,0.00,WeatherDisplay:10.37,2013-07-06 18:24:00,
2013-07-06 13:29:00,90.3,61.2,29.59,South,169,12.7,17.0,38,0.00,CLR,SKC,0.00,WeatherDisplay:10.37,2013-07-06 18:29:00,
2013-07-06 13:36:00,90.5,61.4,29.58,SSE,167,12.7,18.4,38,0.00,CLR,SKC,0.00,WeatherDisplay:10.37,2013-07-06 18:36:00,
2013-07-06 13:42:00,91.0,60.3,29.58,SSE,153,14.6,19.6,36,0.00,CLR,SKC,0.00,WeatherDisplay:10.37,2013-07-06 18:42:00,
2013-07-06 13:47:00,91.3,61.4,29.58,South,188,13.8,19.0,37,0.00,CLR,SKC,0.00,WeatherDisplay:10.37,2013-07-06 18:47:00,
2013-07-06 13:53:00,91.0,61.9,29.58,SSE,162,10.6,15.0,38,0.00,CLR,SKC,0.00,WeatherDisplay:10.37,2013-07-06 18:53:00,
2013-07-06 13:58:00,90.2,60.4,29.58,South,185,11.9,18.4,37,0.00,CLR,SKC,0.00,WeatherDisplay:10.37,2013-07-06 18:58:00,
2013-07-06 14:03:00,89.5,61.3,29.58,South,170,12.7,17.3,39,0.00,CLR,SKC,0.00,WeatherDisplay:10.37,2013-07-06 19:03:00,
2013-07-06 14:09:00,90.0,63.1,29.58,South,169,13.1,17.3,41,0.00,CLR,SKC,0.00,WeatherDisplay:10.37,2013-07-06 19:09:00,
2013-07-06 14:14:00,91.0,62.6,29.58,SSE,161,16.0,19.0,39,0.00,CLR,SKC,0.00,WeatherDisplay:10.37,2013-07-06 19:14:00,
2013-07-06 14:19:00,91.4,63.0,29.58,SSE,166,10.4,19.6,39,0.00,CLR,SKC,0.00,WeatherDisplay:10.37,2013-07-06 19:19:00,
2013-07-06 14:24:00,91.3,62.9,29.58,SSE,152,10.6,18.4,39,0.00,CLR,SKC,0.00,WeatherDisplay:10.37,2013-07-06 19:24:00,
2013-07-06 14:29:00,91.4,63.0,29.58,SSE,165,13.0,18.4,39,0.00,CLR,SKC,0.00,WeatherDisplay:10.37,2013-07-06 19:29:00,
2013-07-06 14:34:00,91.5,63.1,29.58,South,186,11.7,16.1,39,0.00,CLR,SKC,0.00,WeatherDisplay:10.37,2013-07-06 19:34:00,
2013-07-06 14:39:00,91.4,63.0,29.58,South,170,15.0,19.6,39,0.00,CLR,SKC,0.00,WeatherDisplay:10.37,2013-07-06 19:39:00,
2013-07-06 14:44:00,91.5,63.8,29.58,South,190,12.5,16.1,40,0.00,CLR,SKC,0.00,WeatherDisplay:10.37,2013-07-06 19:44:00,
2013-07-06 14:49:00,91.8,64.7,29.58,South,177,10.1,19.6,41,0.00,CLR,SKC,0.00,WeatherDisplay:10.37,2013-07-06 19:49:00,
2013-07-06 14:56:00,92.0,63.5,29.57,SSE,162,9.1,16.1,39,0.00,CLR,SKC,0.00,WeatherDisplay:10.37,2013-07-06 19:56:00,
2013-07-06 15:02:00,92.1,64.3,29.57,SSE,165,17.2,21.9,40,0.00,CLR,SKC,0.00,WeatherDisplay:10.37,2013-07-06 20:02:00,
2013-07-06 15:07:00,92.3,65.2,29.57,SSE,166,13.0,22.0,41,0.00,CLR,SKC,0.00,WeatherDisplay:10.37,2013-07-06 20:07:00,
2013-07-06 15:13:00,92.2,64.4,29.57,SSE,162,14.0,19.0,40,0.00,CLR,SKC,0.00,WeatherDisplay:10.37,2013-07-06 20:13:00,
2013-07-06 15:18:00,92.3,65.9,29.57,SSE,165,12.0,16.1,42,0.00,CLR,SKC,0.00,WeatherDisplay:10.37,2013-07-06 20:18:00,
2013-07-06 15:23:00,92.2,64.4,29.57,South,170,16.0,20.0,40,0.00,CLR,SKC,0.00,WeatherDisplay:10.37,2013-07-06 20:23:00,
2013-07-06 15:28:00,91.8,64.7,29.57,South,172,15.2,20.7,41,0.00,CLR,SKC,0.00,WeatherDisplay:10.37,2013-07-06 20:28:00,
2013-07-06 15:34:00,91.7,64.0,29.57,SSE,164,13.0,20.7,40,0.00,CLR,SKC,0.00,WeatherDisplay:10.37,2013-07-06 20:34:00,
2013-07-06 15:39:00,91.7,64.0,29.57,SSE,168,14.6,18.4,40,0.00,CLR,SKC,0.00,WeatherDisplay:10.37,2013-07-06 20:39:00,
2013-07-06 15:45:00,91.6,63.9,29.57,SSE,153,16.5,20.7,40,0.00,CLR,SKC,0.00,WeatherDisplay:10.37,2013-07-06 20:45:00,
2013-07-06 15:50:00,91.5,63.8,29.57,SSE,147,14.6,19.6,40,0.00,CLR,SKC,0.00,WeatherDisplay:10.37,2013-07-06 20:50:00,
2013-07-06 15:55:00,91.6,64.6,29.57,SSE,166,16.3,22.0,41,0.00,CLR,SKC,0.00,WeatherDisplay:10.37,2013-07-06 20:55:00,
2013-07-06 16:00:00,91.6,64.6,29.57,SSE,161,12.6,18.4,41,0.00,CLR,SKC,0.00,WeatherDisplay:10.37,2013-07-06 21:00:00,
2013-07-06 16:05:00,91.7,64.7,29.57,South,189,11.9,20.0,41,0.00,CLR,SKC,0.00,WeatherDisplay:10.37,2013-07-06 21:05:00,
2013-07-06 16:11:00,91.7,64.0,29.57,South,181,11.8,15.0,40,0.00,CLR,SKC,0.00,WeatherDisplay:10.37,2013-07-06 21:11:00,
2013-07-06 16:16:00,91.5,63.8,29.57,South,179,13.1,21.9,40,0.00,CLR,SKC,0.00,WeatherDisplay:10.37,2013-07-06 21:16:00,
2013-07-06 16:21:00,91.3,63.6,29.57,South,173,15.7,20.0,40,0.00,CLR,SKC,0.00,WeatherDisplay:10.37,2013-07-06 21:21:00,
2013-07-06 16:27:00,91.3,63.6,29.57,South,171,16.0,23.0,40,0.00,CLR,SKC,0.00,WeatherDisplay:10.37,2013-07-06 21:27:00,
2013-07-06 16:32:00,91.2,63.5,29.57,SSW,198,14.4,20.7,40,0.00,CLR,SKC,0.00,WeatherDisplay:10.37,2013-07-06 21:32:00,
2013-07-06 16:37:00,91.0,64.0,29.57,SSE,161,15.6,20.0,41,0.00,CLR,SKC,0.00,WeatherDisplay:10.37,2013-07-06 21:37:00,
2013-07-06 16:42:00,90.9,63.9,29.57,South,178,17.6,24.2,41,0.00,CLR,SKC,0.00,WeatherDisplay:10.37,2013-07-06 21:42:00,
2013-07-06 16:47:00,90.8,65.2,29.56,South,170,14.1,19.0,43,0.00,CLR,SKC,0.00,WeatherDisplay:10.37,2013-07-06 21:47:00,
2013-07-06 16:52:00,90.7,65.1,29.56,South,173,17.3,23.0,43,0.00,CLR,SKC,0.00,WeatherDisplay:10.37,2013-07-06 21:52:00,
2013-07-06 16:58:00,90.6,64.4,29.56,South,175,11.1,19.6,42,0.00,CLR,SKC,0.00,WeatherDisplay:10.37,2013-07-06 21:58:00,
2013-07-06 17:03:00,90.5,64.3,29.56,SSE,161,14.7,18.4,42,0.00,CLR,SKC,0.00,WeatherDisplay:10.37,2013-07-06 22:03:00,
2013-07-06 17:08:00,90.5,64.9,29.56,South,170,14.0,19.6,43,0.00,CLR,SKC,0.00,WeatherDisplay:10.37,2013-07-06 22:08:00,
2013-07-06 17:13:00,90.0,64.5,29.56,SSE,165,0.0,16.1,43,0.00,CLR,SKC,0.00,WeatherDisplay:10.37,2013-07-06 22:13:00,
2013-07-06 17:18:00,89.2,63.8,29.56,South,175,11.7,19.6,43,0.00,CLR,SKC,0.00,WeatherDisplay:10.37,2013-07-06 22:18:00,
2013-07-06 17:24:00,89.1,63.7,29.56,SSE,153,15.3,21.9,43,0.00,CLR,SKC,0.00,WeatherDisplay:10.37,2013-07-06 22:24:00,
2013-07-06 17:29:00,88.8,64.1,29.56,SSE,165,12.6,19.6,44,0.00,CLR,SKC,0.00,WeatherDisplay:10.37,2013-07-06 22:29:00,
2013-07-06 17:34:00,88.9,64.2,29.56,SSE,167,13.1,21.9,44,0.00,CLR,SKC,0.00,WeatherDisplay:10.37,2013-07-06 22:34:00,
2013-07-06 17:39:00,89.0,64.3,29.56,South,169,11.6,18.4,44,0.00,CLR,SKC,0.00,WeatherDisplay:10.37,2013-07-06 22:39:00,
2013-07-06 17:44:00,89.1,63.7,29.56,South,179,12.8,19.6,43,0.00,CLR,SKC,0.00,WeatherDisplay:10.37,2013-07-06 22:44:00,
2013-07-06 17:49:00,88.7,64.0,29.56,SSW,197,15.0,19.6,44,0.00,CLR,SKC,0.00,WeatherDisplay:10.37,2013-07-06 22:49:00,
2013-07-06 17:55:00,88.4,63.7,29.56,SSE,167,12.6,17.3,44,0.00,CLR,SKC,0.00,WeatherDisplay:10.37,2013-07-06 22:55:00,
2013-07-06 18:01:00,88.1,64.1,29.56,South,170,12.4,17.3,45,0.00,CLR,SKC,0.00,WeatherDisplay:10.37,2013-07-06 23:01:00,
2013-07-06 18:07:00,87.7,63.7,29.56,South,171,10.0,21.0,45,0.00,CLR,SKC,0.00,WeatherDisplay:10.37,2013-07-06 23:07:00,
2013-07-06 18:13:00,87.4,63.5,29.56,SSW,207,13.5,18.0,45,0.00,CLR,SKC,0.00,WeatherDisplay:10.37,2013-07-06 23:13:00,
2013-07-06 18:18:00,87.2,63.9,29.56,South,177,9.6,15.0,46,0.00,CLR,SKC,0.00,WeatherDisplay:10.37,2013-07-06 23:18:00,
2013-07-06 18:23:00,87.1,64.4,29.56,South,173,7.3,13.8,47,0.00,CLR,SKC,0.00,WeatherDisplay:10.37,2013-07-06 23:23:00,
2013-07-06 18:28:00,87.0,64.3,29.56,SSE,161,10.2,16.1,47,0.00,CLR,SKC,0.00,WeatherDisplay:10.37,2013-07-06 23:28:00,
2013-07-06 18:36:00,87.0,64.3,29.56,South,177,11.5,12.7,47,0.00,CLR,SKC,0.00,WeatherDisplay:10.37,2013-07-06 23:36:00,
2013-07-06 18:41:00,87.2,65.7,29.56,South,171,8.3,12.7,49,0.00,CLR,SKC,0.00,WeatherDisplay:10.37,2013-07-06 23:41:00,
2013-07-06 18:48:00,87.6,65.5,29.55,South,172,8.8,12.7,48,0.00,CLR,SKC,0.00,WeatherDisplay:10.37,2013-07-06 23:48:00,
2013-07-06 18:53:00,87.7,65.0,29.55,SSE,167,10.9,13.0,47,0.00,CLR,SKC,0.00,WeatherDisplay:10.37,2013-07-06 23:53:00,
2013-07-06 18:58:00,87.5,64.8,29.56,South,172,10.4,13.0,47,0.00,CLR,SKC,0.00,WeatherDisplay:10.37,2013-07-06 23:58:00,
2013-07-06 19:03:00,87.4,65.3,29.56,South,175,11.9,16.1,48,0.00,CLR,SKC,0.00,WeatherDisplay:10.37,2013-07-07 00:03:00,
2013-07-06 19:09:00,87.1,64.4,29.56,SSE,163,11.8,16.1,47,0.00,CLR,SKC,0.00,WeatherDisplay:10.37,2013-07-07 00:09:00,
2013-07-06 19:14:00,86.8,64.8,29.56,South,170,7.6,11.5,48,0.00,CLR,SKC,0.00,WeatherDisplay:10.37,2013-07-07 00:14:00,
2013-07-06 19:19:00,86.7,64.7,29.56,SSE,168,10.6,18.4,48,0.00,CLR,SKC,0.00,WeatherDisplay:10.37,2013-07-07 00:19:00,
2013-07-06 19:24:00,86.6,65.2,29.55,SSE,165,10.0,15.0,49,0.00,CLR,SKC,0.00,WeatherDisplay:10.37,2013-07-07 00:24:00,
2013-07-06 19:30:00,86.3,64.9,29.55,South,169,9.1,13.0,49,0.00,CLR,SKC,0.00,WeatherDisplay:10.37,2013-07-07 00:30:00,
2013-07-06 19:36:00,86.1,64.7,29.56,South,171,12.0,16.0,49,0.00,CLR,SKC,0.00,WeatherDisplay:10.37,2013-07-07 00:36:00,
2013-07-06 19:41:00,85.9,64.5,29.56,SSE,167,9.7,12.0,49,0.00,CLR,SKC,0.00,WeatherDisplay:10.37,2013-07-07 00:41:00,
2013-07-06 19:46:00,85.7,64.3,29.55,SSE,163,9.0,11.5,49,0.00,CLR,SKC,0.00,WeatherDisplay:10.37,2013-07-07 00:46:00,
2013-07-06 19:51:00,85.5,64.2,29.56,SSE,162,10.0,13.8,49,0.00,CLR,SKC,0.00,WeatherDisplay:10.37,2013-07-07 00:51:00,
2013-07-06 19:56:00,85.2,63.9,29.56,South,174,8.8,12.7,49,0.00,CLR,SKC,0.00,WeatherDisplay:10.37,2013-07-07 00:56:00,
2013-07-06 20:01:00,85.0,64.3,29.56,SSE,166,8.3,11.5,50,0.00,CLR,SKC,0.00,WeatherDisplay:10.37,2013-07-07 01:01:00,
2013-07-06 20:07:00,84.5,63.8,29.56,South,169,7.8,10.4,50,0.00,CLR,SKC,0.00,WeatherDisplay:10.37,2013-07-07 01:07:00,
2013-07-06 20:12:00,84.1,64.0,29.56,SSE,163,7.7,10.4,51,0.00,CLR,SKC,0.00,WeatherDisplay:10.37,2013-07-07 01:12:00,
2013-07-06 20:17:00,83.8,63.7,29.56,SSE,159,9.3,12.0,51,0.00,CLR,SKC,0.00,WeatherDisplay:10.37,2013-07-07 01:17:00,
2013-07-06 20:22:00,83.4,63.9,29.56,SSE,165,9.2,11.5,52,0.00,CLR,SKC,0.00,WeatherDisplay:10.37,2013-07-07 01:22:00,
2013-07-06 20:27:00,83.2,63.7,29.56,SSE,157,7.2,11.5,52,0.00,CLR,SKC,0.00,WeatherDisplay:10.37,2013-07-07 01:27:00,
2013-07-06 20:33:00,82.8,63.9,29.57,SSE,155,7.7,11.5,53,0.00,CLR,SKC,0.00,WeatherDisplay:10.37,2013-07-07 01:33:00,
2013-07-06 20:39:00,82.5,63.6,29.57,SSE,164,7.0,9.2,53,0.00,CLR,SKC,0.00,WeatherDisplay:10.37,2013-07-07 01:39:00,
2013-07-06 20:44:00,82.2,63.4,29.57,SSE,164,7.1,9.2,53,0.00,CLR,SKC,0.00,WeatherDisplay:10.37,2013-07-07 01:44:00,
2013-07-06 20:50:00,81.9,63.6,29.57,SSE,165,6.1,10.4,54,0.00,CLR,SKC,0.00,WeatherDisplay:10.37,2013-07-07 01:50:00,
2013-07-06 20:55:00,81.6,63.9,29.57,SSE,161,7.4,11.0,55,0.00,CLR,SKC,0.00,WeatherDisplay:10.37,2013-07-07 01:55:00,
2013-07-06 21:00:00,81.5,63.8,29.57,SSE,159,8.1,11.5,55,0.00,CLR,SKC,0.00,WeatherDisplay:10.37,2013-07-07 02:00:00,
2013-07-06 21:05:00,81.3,63.6,29.57,SSE,163,7.3,9.2,55,0.00,CLR,SKC,0.00,WeatherDisplay:10.37,2013-07-07 02:05:00,
2013-07-06 21:10:00,81.1,63.4,29.57,South,171,8.9,11.5,55,0.00,CLR,SKC,0.00,WeatherDisplay:10.37,2013-07-07 02:10:00,
2013-07-06 21:15:00,81.0,63.8,29.57,South,170,8.0,10.4,56,0.00,CLR,SKC,0.00,WeatherDisplay:10.37,2013-07-07 02:15:00,
2013-07-06 21:21:00,80.8,63.7,29.57,SSE,167,9.0,12.0,56,0.00,CLR,SKC,0.00,WeatherDisplay:10.37,2013-07-07 02:21:00,
2013-07-06 21:26:00,80.6,64.0,29.57,SSE,167,7.5,10.4,57,0.00,CLR,SKC,0.00,WeatherDisplay:10.37,2013-07-07 02:26:00,
2013-07-06 21:31:00,80.4,63.8,29.57,SSE,168,7.6,12.0,57,0.00,CLR,SKC,0.00,WeatherDisplay:10.37,2013-07-07 02:31:00,
2013-07-06 21:39:00,80.1,64.0,29.58,SSE,168,8.5,11.5,58,0.00,CLR,SKC,0.00,WeatherDisplay:10.37,2013-07-07 02:39:00,
2013-07-06 21:44:00,80.0,63.9,29.58,SSE,161,9.0,11.5,58,0.00,CLR,SKC,0.00,WeatherDisplay:10.37,2013-07-07 02:44:00,
2013-07-06 21:49:00,80.0,63.9,29.58,South,173,2.3,11.0,58,0.00,CLR,SKC,0.00,WeatherDisplay:10.37,2013-07-07 02:49:00,
2013-07-06 21:55:00,79.8,64.2,29.59,SSE,166,7.8,11.5,59,0.00,CLR,SKC,0.00,WeatherDisplay:10.37,2013-07-07 02:55:00,
2013-07-06 22:02:00,79.5,64.4,29.59,SSE,160,7.0,10.0,60,0.00,CLR,SKC,0.00,WeatherDisplay:10.37,2013-07-07 03:02:00,
2013-07-06 22:08:00,79.4,64.3,29.59,SSE,163,5.6,10.0,60,0.00,CLR,SKC,0.00,WeatherDisplay:10.37,2013-07-07 03:08:00,
2013-07-06 22:14:00,79.1,64.5,29.59,SSE,167,5.7,8.1,61,0.00,CLR,SKC,0.00,WeatherDisplay:10.37,2013-07-07 03:14:00,
2013-07-06 22:20:00,78.9,64.8,29.59,South,169,5.6,10.0,62,0.00,CLR,SKC,0.00,WeatherDisplay:10.37,2013-07-07 03:20:00,
2013-07-06 22:26:00,78.8,64.7,29.60,South,171,5.8,10.4,62,0.00,CLR,SKC,0.00,WeatherDisplay:10.37,2013-07-07 03:26:00,
2013-07-06 22:32:00,78.9,64.8,29.60,South,171,7.8,10.4,62,0.00,CLR,SKC,0.00,WeatherDisplay:10.37,2013-07-07 03:32:00,
2013-07-06 22:37:00,79.1,65.0,29.60,South,169,6.3,11.5,62,0.00,CLR,SKC,0.00,WeatherDisplay:10.37,2013-07-07 03:37:00,
2013-07-06 22:43:00,79.1,65.0,29.60,South,170,9.7,12.0,62,0.00,CLR,SKC,0.00,WeatherDisplay:10.37,2013-07-07 03:43:00,
2013-07-06 22:48:00,79.1,65.0,29.60,South,169,7.0,10.4,62,0.00,CLR,SKC,0.00,WeatherDisplay:10.37,2013-07-07 03:48:00,
2013-07-06 22:53:00,79.0,64.9,29.60,SSE,157,9.0,13.8,62,0.00,CLR,SKC,0.00,WeatherDisplay:10.37,2013-07-07 03:53:00,
2013-07-06 22:59:00,78.8,64.7,29.59,South,169,8.6,12.0,62,0.00,CLR,SKC,0.00,WeatherDisplay:10.37,2013-07-07 03:59:00,
2013-07-06 23:01:00,78.8,64.7,29.59,South,173,8.1,11.5,62,0.00,CLR,SKC,0.00,WeatherDisplay:10.37,2013-07-07 04:01:00,
2013-07-06 23:03:00,78.7,64.6,29.59,South,171,6.7,9.2,62,0.00,CLR,SKC,0.00,WeatherDisplay:10.37,2013-07-07 04:03:00,
2013-07-06 23:04:00,78.6,64.5,29.59,SSE,165,9.5,12.0,62,0.00,CLR,SKC,0.00,WeatherDisplay:10.37,2013-07-07 04:04:00,
2013-07-06 23:09:00,78.4,64.8,29.59,South,172,10.0,13.0,63,0.00,CLR,SKC,0.00,WeatherDisplay:10.37,2013-07-07 04:09:00,
2013-07-06 23:14:00,78.2,64.6,29.60,SSE,167,7.0,10.4,63,0.00,CLR,SKC,0.00,WeatherDisplay:10.37,2013-07-07 04:14:00,
2013-07-06 23:19:00,78.0,64.8,29.60,SSE,151,8.0,11.5,64,0.00,CLR,SKC,0.00,WeatherDisplay:10.37,2013-07-07 04:19:00,
2013-07-06 23:24:00,77.8,64.6,29.59,South,175,7.2,11.5,64,0.00,CLR,SKC,0.00,WeatherDisplay:10.37,2013-07-07 04:24:00,
2013-07-06 23:29:00,77.6,64.9,29.60,SSE,165,6.4,11.5,65,0.00,CLR,SKC,0.00,WeatherDisplay:10.37,2013-07-07 04:29:00,
2013-07-06 23:34:00,77.5,64.8,29.60,South,175,7.2,11.5,65,0.00,CLR,SKC,0.00,WeatherDisplay:10.37,2013-07-07 04:34:00,
2013-07-06 23:39:00,77.4,65.1,29.60,SSE,165,7.3,11.5,66,0.00,CLR,SKC,0.00,WeatherDisplay:10.37,2013-07-07 04:39:00,
2013-07-06 23:44:00,77.3,65.1,29.60,South,172,6.6,10.4,66,0.00,CLR,SKC,0.00,WeatherDisplay:10.37,2013-07-07 04:44:00,
2013-07-06 23:49:00,77.2,65.4,29.59,South,175,8.7,11.5,67,0.00,CLR,SKC,0.00,WeatherDisplay:10.37,2013-07-07 04:49:00,
2013-07-06 23:54:00,77.1,65.3,29.60,South,170,6.7,10.4,67,0.00,CLR,SKC,0.00,WeatherDisplay:10.37,2013-07-07 04:54:00,
2013-07-06 23:59:00,76.9,65.1,29.60,South,169,6.8,11.5,67,0.00,CLR,SKC,0.00,WeatherDisplay:10.37,2013-07-07 04:59:00,